sensor_id;sensor_type;location;lat;lon;timestamp;P1;durP1;ratioP1;P2;durP2;ratioP2
16642;SDS011;8435;52.184;5.406;2024-02-16T00:02:08;3.43;;;2.57;;
16642;SDS011;8435;52.184;5.406;2024-02-16T00:04:34;3.80;;;2.47;;
16642;SDS011;8435;52.184;5.406;2024-02-16T00:07:01;2.90;;;2.60;;
16642;SDS011;8435;52.184;5.406;2024-02-16T00:09:28;4.90;;;2.30;;
16642;SDS011;8435;52.184;5.406;2024-02-16T00:11:54;3.10;;;2.80;;
16642;SDS011;8435;52.184;5.406;2024-02-16T00:14:21;4.97;;;2.50;;
16642;SDS011;8435;52.184;5.406;2024-02-16T00:16:49;2.83;;;2.53;;
16642;SDS011;8435;52.184;5.406;2024-02-16T00:19:16;3.63;;;2.80;;
16642;SDS011;8435;52.184;5.406;2024-02-16T00:21:43;4.93;;;3.03;;
16642;SDS011;8435;52.184;5.406;2024-02-16T00:24:10;2.90;;;2.70;;
16642;SDS011;8435;52.184;5.406;2024-02-16T00:26:37;4.87;;;2.63;;
16642;SDS011;8435;52.184;5.406;2024-02-16T00:29:05;3.60;;;2.50;;
16642;SDS011;8435;52.184;5.406;2024-02-16T00:31:32;5.90;;;2.80;;
16642;SDS011;8435;52.184;5.406;2024-02-16T00:34:02;3.67;;;2.90;;
16642;SDS011;8435;52.184;5.406;2024-02-16T00:36:29;3.87;;;2.83;;
16642;SDS011;8435;52.184;5.406;2024-02-16T00:38:56;3.70;;;3.00;;
16642;SDS011;8435;52.184;5.406;2024-02-16T00:41:23;3.20;;;2.90;;
16642;SDS011;8435;52.184;5.406;2024-02-16T00:43:50;3.10;;;2.80;;
16642;SDS011;8435;52.184;5.406;2024-02-16T00:46:17;3.90;;;2.50;;
16642;SDS011;8435;52.184;5.406;2024-02-16T00:48:44;2.97;;;2.50;;
16642;SDS011;8435;52.184;5.406;2024-02-16T00:51:13;4.10;;;2.73;;
16642;SDS011;8435;52.184;5.406;2024-02-16T00:53:39;4.10;;;3.10;;
16642;SDS011;8435;52.184;5.406;2024-02-16T00:56:06;4.73;;;2.87;;
16642;SDS011;8435;52.184;5.406;2024-02-16T00:58:33;4.40;;;2.73;;
16642;SDS011;8435;52.184;5.406;2024-02-16T01:01:01;3.33;;;2.60;;
16642;SDS011;8435;52.184;5.406;2024-02-16T01:03:30;3.23;;;2.60;;
16642;SDS011;8435;52.184;5.406;2024-02-16T01:05:57;3.03;;;2.73;;
16642;SDS011;8435;52.184;5.406;2024-02-16T01:08:25;4.50;;;3.00;;
16642;SDS011;8435;52.184;5.406;2024-02-16T01:10:53;3.40;;;2.63;;
16642;SDS011;8435;52.184;5.406;2024-02-16T01:13:19;4.67;;;2.97;;
16642;SDS011;8435;52.184;5.406;2024-02-16T01:15:46;3.77;;;2.50;;
16642;SDS011;8435;52.184;5.406;2024-02-16T01:18:13;4.50;;;3.10;;
16642;SDS011;8435;52.184;5.406;2024-02-16T01:20:40;3.50;;;2.63;;
16642;SDS011;8435;52.184;5.406;2024-02-16T01:23:07;5.10;;;3.20;;
16642;SDS011;8435;52.184;5.406;2024-02-16T01:25:37;2.87;;;2.43;;
16642;SDS011;8435;52.184;5.406;2024-02-16T01:28:06;3.13;;;2.50;;
16642;SDS011;8435;52.184;5.406;2024-02-16T01:30:33;3.20;;;2.90;;
16642;SDS011;8435;52.184;5.406;2024-02-16T01:33:00;3.63;;;2.70;;
16642;SDS011;8435;52.184;5.406;2024-02-16T01:35:27;3.43;;;2.83;;
16642;SDS011;8435;52.184;5.406;2024-02-16T01:37:54;3.30;;;3.00;;
16642;SDS011;8435;52.184;5.406;2024-02-16T01:40:21;3.43;;;3.13;;
16642;SDS011;8435;52.184;5.406;2024-02-16T01:42:52;5.00;;;3.00;;
16642;SDS011;8435;52.184;5.406;2024-02-16T01:45:19;3.83;;;2.50;;
16642;SDS011;8435;52.184;5.406;2024-02-16T01:47:47;3.63;;;2.80;;
16642;SDS011;8435;52.184;5.406;2024-02-16T01:50:16;3.80;;;2.83;;
16642;SDS011;8435;52.184;5.406;2024-02-16T01:52:46;3.87;;;2.80;;
16642;SDS011;8435;52.184;5.406;2024-02-16T01:55:13;3.60;;;3.00;;
16642;SDS011;8435;52.184;5.406;2024-02-16T01:57:42;5.23;;;3.03;;
16642;SDS011;8435;52.184;5.406;2024-02-16T02:00:12;3.40;;;3.10;;
16642;SDS011;8435;52.184;5.406;2024-02-16T02:02:40;3.90;;;3.00;;
16642;SDS011;8435;52.184;5.406;2024-02-16T02:05:09;3.17;;;2.83;;
16642;SDS011;8435;52.184;5.406;2024-02-16T02:07:37;2.80;;;2.60;;
16642;SDS011;8435;52.184;5.406;2024-02-16T02:10:04;4.43;;;3.23;;
16642;SDS011;8435;52.184;5.406;2024-02-16T02:12:31;3.90;;;3.50;;
16642;SDS011;8435;52.184;5.406;2024-02-16T02:14:59;3.37;;;3.07;;
16642;SDS011;8435;52.184;5.406;2024-02-16T02:17:29;3.70;;;2.73;;
16642;SDS011;8435;52.184;5.406;2024-02-16T02:19:55;3.13;;;2.77;;
16642;SDS011;8435;52.184;5.406;2024-02-16T02:22:24;4.80;;;3.10;;
16642;SDS011;8435;52.184;5.406;2024-02-16T02:24:52;3.53;;;3.10;;
16642;SDS011;8435;52.184;5.406;2024-02-16T02:27:20;3.43;;;2.70;;
16642;SDS011;8435;52.184;5.406;2024-02-16T02:29:47;2.87;;;2.60;;
16642;SDS011;8435;52.184;5.406;2024-02-16T02:32:16;3.30;;;3.00;;
16642;SDS011;8435;52.184;5.406;2024-02-16T02:34:44;3.80;;;2.67;;
16642;SDS011;8435;52.184;5.406;2024-02-16T02:37:11;2.97;;;2.67;;
16642;SDS011;8435;52.184;5.406;2024-02-16T02:39:39;3.93;;;2.80;;
16642;SDS011;8435;52.184;5.406;2024-02-16T02:42:06;3.30;;;2.80;;
16642;SDS011;8435;52.184;5.406;2024-02-16T02:44:33;3.30;;;3.00;;
16642;SDS011;8435;52.184;5.406;2024-02-16T02:47:00;3.20;;;2.90;;
16642;SDS011;8435;52.184;5.406;2024-02-16T02:49:27;3.20;;;2.70;;
16642;SDS011;8435;52.184;5.406;2024-02-16T02:51:53;3.60;;;3.30;;
16642;SDS011;8435;52.184;5.406;2024-02-16T02:54:20;3.40;;;3.00;;
16642;SDS011;8435;52.184;5.406;2024-02-16T02:56:48;3.30;;;3.00;;
16642;SDS011;8435;52.184;5.406;2024-02-16T02:59:15;3.47;;;3.17;;
16642;SDS011;8435;52.184;5.406;2024-02-16T03:01:41;3.40;;;3.10;;
16642;SDS011;8435;52.184;5.406;2024-02-16T03:04:09;3.47;;;3.10;;
16642;SDS011;8435;52.184;5.406;2024-02-16T03:06:36;4.10;;;3.13;;
16642;SDS011;8435;52.184;5.406;2024-02-16T03:09:03;3.30;;;3.00;;
16642;SDS011;8435;52.184;5.406;2024-02-16T03:11:30;4.17;;;3.07;;
16642;SDS011;8435;52.184;5.406;2024-02-16T03:14:00;3.13;;;2.77;;
16642;SDS011;8435;52.184;5.406;2024-02-16T03:16:28;2.87;;;2.67;;
16642;SDS011;8435;52.184;5.406;2024-02-16T03:18:54;3.33;;;2.73;;
16642;SDS011;8435;52.184;5.406;2024-02-16T03:21:21;3.67;;;3.30;;
16642;SDS011;8435;52.184;5.406;2024-02-16T03:23:48;3.47;;;2.83;;
16642;SDS011;8435;52.184;5.406;2024-02-16T03:26:18;3.00;;;2.73;;
16642;SDS011;8435;52.184;5.406;2024-02-16T03:28:46;4.37;;;3.07;;
16642;SDS011;8435;52.184;5.406;2024-02-16T03:31:20;3.37;;;3.00;;
16642;SDS011;8435;52.184;5.406;2024-02-16T03:33:48;3.23;;;2.80;;
16642;SDS011;8435;52.184;5.406;2024-02-16T03:36:16;3.43;;;2.50;;
16642;SDS011;8435;52.184;5.406;2024-02-16T03:38:43;4.00;;;3.27;;
16642;SDS011;8435;52.184;5.406;2024-02-16T03:41:12;4.37;;;3.60;;
16642;SDS011;8435;52.184;5.406;2024-02-16T03:43:41;3.47;;;3.17;;
16642;SDS011;8435;52.184;5.406;2024-02-16T03:46:08;4.23;;;3.23;;
16642;SDS011;8435;52.184;5.406;2024-02-16T03:48:36;4.00;;;3.13;;
16642;SDS011;8435;52.184;5.406;2024-02-16T03:51:04;4.73;;;3.40;;
16642;SDS011;8435;52.184;5.406;2024-02-16T03:53:31;3.27;;;2.97;;
16642;SDS011;8435;52.184;5.406;2024-02-16T03:55:58;3.43;;;3.13;;
16642;SDS011;8435;52.184;5.406;2024-02-16T03:58:35;3.70;;;3.37;;
16642;SDS011;8435;52.184;5.406;2024-02-16T04:01:02;3.20;;;2.90;;
16642;SDS011;8435;52.184;5.406;2024-02-16T04:03:30;4.37;;;3.17;;
16642;SDS011;8435;52.184;5.406;2024-02-16T04:05:58;3.67;;;3.00;;
16642;SDS011;8435;52.184;5.406;2024-02-16T04:08:26;3.40;;;3.10;;
16642;SDS011;8435;52.184;5.406;2024-02-16T04:10:53;4.00;;;3.40;;
16642;SDS011;8435;52.184;5.406;2024-02-16T04:13:20;3.23;;;2.90;;
16642;SDS011;8435;52.184;5.406;2024-02-16T04:15:46;3.70;;;3.07;;
16642;SDS011;8435;52.184;5.406;2024-02-16T04:18:13;5.00;;;3.20;;
16642;SDS011;8435;52.184;5.406;2024-02-16T04:20:40;3.80;;;3.20;;
16642;SDS011;8435;52.184;5.406;2024-02-16T04:23:08;3.40;;;3.10;;
16642;SDS011;8435;52.184;5.406;2024-02-16T04:25:35;4.17;;;3.17;;
16642;SDS011;8435;52.184;5.406;2024-02-16T04:28:01;3.33;;;3.13;;
16642;SDS011;8435;52.184;5.406;2024-02-16T04:30:27;3.50;;;3.20;;
16642;SDS011;8435;52.184;5.406;2024-02-16T04:32:54;3.80;;;2.90;;
16642;SDS011;8435;52.184;5.406;2024-02-16T04:35:21;3.73;;;3.30;;
16642;SDS011;8435;52.184;5.406;2024-02-16T04:37:48;3.47;;;3.17;;
16642;SDS011;8435;52.184;5.406;2024-02-16T04:40:17;3.50;;;3.20;;
16642;SDS011;8435;52.184;5.406;2024-02-16T04:42:44;4.50;;;2.90;;
16642;SDS011;8435;52.184;5.406;2024-02-16T04:45:12;4.33;;;3.60;;
16642;SDS011;8435;52.184;5.406;2024-02-16T04:47:39;4.80;;;3.23;;
16642;SDS011;8435;52.184;5.406;2024-02-16T04:50:06;3.87;;;3.00;;
16642;SDS011;8435;52.184;5.406;2024-02-16T04:52:35;3.93;;;3.33;;
16642;SDS011;8435;52.184;5.406;2024-02-16T04:55:06;5.37;;;3.23;;
16642;SDS011;8435;52.184;5.406;2024-02-16T04:57:34;3.20;;;2.90;;
16642;SDS011;8435;52.184;5.406;2024-02-16T05:00:01;5.00;;;3.33;;
16642;SDS011;8435;52.184;5.406;2024-02-16T05:02:29;4.87;;;3.23;;
16642;SDS011;8435;52.184;5.406;2024-02-16T05:04:55;4.47;;;3.40;;
16642;SDS011;8435;52.184;5.406;2024-02-16T05:07:22;3.40;;;3.07;;
16642;SDS011;8435;52.184;5.406;2024-02-16T05:09:49;3.33;;;3.03;;
16642;SDS011;8435;52.184;5.406;2024-02-16T05:12:20;3.60;;;2.80;;
16642;SDS011;8435;52.184;5.406;2024-02-16T05:14:49;3.47;;;3.00;;
16642;SDS011;8435;52.184;5.406;2024-02-16T05:17:16;3.77;;;3.20;;
16642;SDS011;8435;52.184;5.406;2024-02-16T05:19:44;3.90;;;3.00;;
16642;SDS011;8435;52.184;5.406;2024-02-16T05:22:11;3.80;;;3.27;;
16642;SDS011;8435;52.184;5.406;2024-02-16T05:24:37;4.23;;;3.37;;
16642;SDS011;8435;52.184;5.406;2024-02-16T05:27:04;3.47;;;3.13;;
16642;SDS011;8435;52.184;5.406;2024-02-16T05:29:31;3.83;;;3.40;;
16642;SDS011;8435;52.184;5.406;2024-02-16T05:31:59;4.77;;;3.70;;
16642;SDS011;8435;52.184;5.406;2024-02-16T05:34:26;3.60;;;3.00;;
16642;SDS011;8435;52.184;5.406;2024-02-16T05:36:57;3.13;;;2.67;;
16642;SDS011;8435;52.184;5.406;2024-02-16T05:39:24;3.43;;;2.83;;
16642;SDS011;8435;52.184;5.406;2024-02-16T05:41:56;4.73;;;3.03;;
16642;SDS011;8435;52.184;5.406;2024-02-16T05:44:23;3.47;;;3.17;;
16642;SDS011;8435;52.184;5.406;2024-02-16T05:46:49;4.73;;;3.33;;
16642;SDS011;8435;52.184;5.406;2024-02-16T05:49:18;3.40;;;3.10;;
16642;SDS011;8435;52.184;5.406;2024-02-16T05:51:45;4.37;;;2.93;;
16642;SDS011;8435;52.184;5.406;2024-02-16T05:54:32;3.80;;;3.40;;
16642;SDS011;8435;52.184;5.406;2024-02-16T05:56:59;3.27;;;2.83;;
16642;SDS011;8435;52.184;5.406;2024-02-16T05:59:25;5.83;;;3.37;;
16642;SDS011;8435;52.184;5.406;2024-02-16T06:01:52;7.40;;;3.10;;
16642;SDS011;8435;52.184;5.406;2024-02-16T06:04:24;3.10;;;2.80;;
16642;SDS011;8435;52.184;5.406;2024-02-16T06:06:51;3.40;;;3.10;;
16642;SDS011;8435;52.184;5.406;2024-02-16T06:09:18;3.77;;;3.00;;
16642;SDS011;8435;52.184;5.406;2024-02-16T06:11:45;4.10;;;3.20;;
16642;SDS011;8435;52.184;5.406;2024-02-16T06:14:13;5.37;;;3.43;;
16642;SDS011;8435;52.184;5.406;2024-02-16T06:16:40;3.00;;;2.70;;
16642;SDS011;8435;52.184;5.406;2024-02-16T06:19:07;3.00;;;2.70;;
16642;SDS011;8435;52.184;5.406;2024-02-16T06:21:36;4.53;;;3.00;;
16642;SDS011;8435;52.184;5.406;2024-02-16T06:24:03;3.17;;;2.87;;
16642;SDS011;8435;52.184;5.406;2024-02-16T06:26:30;3.50;;;3.20;;
16642;SDS011;8435;52.184;5.406;2024-02-16T06:28:57;5.20;;;3.00;;
16642;SDS011;8435;52.184;5.406;2024-02-16T06:31:24;4.53;;;3.27;;
16642;SDS011;8435;52.184;5.406;2024-02-16T06:33:52;3.37;;;3.00;;
16642;SDS011;8435;52.184;5.406;2024-02-16T06:36:19;4.33;;;2.80;;
16642;SDS011;8435;52.184;5.406;2024-02-16T06:38:47;4.10;;;2.80;;
16642;SDS011;8435;52.184;5.406;2024-02-16T06:41:13;3.17;;;2.87;;
16642;SDS011;8435;52.184;5.406;2024-02-16T06:43:40;5.27;;;3.57;;
16642;SDS011;8435;52.184;5.406;2024-02-16T06:46:08;3.90;;;2.93;;
16642;SDS011;8435;52.184;5.406;2024-02-16T06:48:38;4.60;;;3.30;;
16642;SDS011;8435;52.184;5.406;2024-02-16T06:51:04;3.20;;;2.90;;
16642;SDS011;8435;52.184;5.406;2024-02-16T06:53:32;3.60;;;3.30;;
16642;SDS011;8435;52.184;5.406;2024-02-16T06:56:00;5.23;;;2.90;;
16642;SDS011;8435;52.184;5.406;2024-02-16T06:58:29;3.70;;;3.30;;
16642;SDS011;8435;52.184;5.406;2024-02-16T07:00:56;3.43;;;3.10;;
16642;SDS011;8435;52.184;5.406;2024-02-16T07:03:28;3.87;;;3.47;;
16642;SDS011;8435;52.184;5.406;2024-02-16T07:05:55;4.27;;;3.37;;
16642;SDS011;8435;52.184;5.406;2024-02-16T07:08:21;3.30;;;3.00;;
16642;SDS011;8435;52.184;5.406;2024-02-16T07:10:49;3.13;;;2.77;;
16642;SDS011;8435;52.184;5.406;2024-02-16T07:13:18;3.03;;;2.73;;
16642;SDS011;8435;52.184;5.406;2024-02-16T07:15:46;4.67;;;3.07;;
16642;SDS011;8435;52.184;5.406;2024-02-16T07:18:12;3.43;;;2.90;;
16642;SDS011;8435;52.184;5.406;2024-02-16T07:20:39;3.73;;;3.23;;
16642;SDS011;8435;52.184;5.406;2024-02-16T07:23:06;2.90;;;2.67;;
16642;SDS011;8435;52.184;5.406;2024-02-16T07:25:34;3.73;;;3.00;;
16642;SDS011;8435;52.184;5.406;2024-02-16T07:28:01;3.77;;;3.00;;
16642;SDS011;8435;52.184;5.406;2024-02-16T07:30:29;3.40;;;3.10;;
16642;SDS011;8435;52.184;5.406;2024-02-16T07:32:56;3.33;;;3.03;;
16642;SDS011;8435;52.184;5.406;2024-02-16T07:35:23;3.03;;;2.70;;
16642;SDS011;8435;52.184;5.406;2024-02-16T07:37:50;3.43;;;3.13;;
16642;SDS011;8435;52.184;5.406;2024-02-16T07:40:19;3.40;;;3.10;;
16642;SDS011;8435;52.184;5.406;2024-02-16T07:42:48;3.30;;;3.00;;
16642;SDS011;8435;52.184;5.406;2024-02-16T07:45:15;3.60;;;3.30;;
16642;SDS011;8435;52.184;5.406;2024-02-16T07:47:43;3.60;;;3.30;;
16642;SDS011;8435;52.184;5.406;2024-02-16T07:50:10;3.43;;;3.07;;
16642;SDS011;8435;52.184;5.406;2024-02-16T07:52:37;3.50;;;3.20;;
16642;SDS011;8435;52.184;5.406;2024-02-16T07:55:05;4.83;;;3.13;;
16642;SDS011;8435;52.184;5.406;2024-02-16T07:57:32;3.70;;;3.30;;
16642;SDS011;8435;52.184;5.406;2024-02-16T08:00:03;3.17;;;2.83;;
16642;SDS011;8435;52.184;5.406;2024-02-16T08:02:31;3.97;;;3.53;;
16642;SDS011;8435;52.184;5.406;2024-02-16T08:04:59;3.30;;;3.00;;
16642;SDS011;8435;52.184;5.406;2024-02-16T08:07:26;3.50;;;3.20;;
16642;SDS011;8435;52.184;5.406;2024-02-16T08:09:53;3.73;;;3.33;;
16642;SDS011;8435;52.184;5.406;2024-02-16T08:12:20;3.97;;;3.33;;
16642;SDS011;8435;52.184;5.406;2024-02-16T08:14:47;4.20;;;3.30;;
16642;SDS011;8435;52.184;5.406;2024-02-16T08:17:13;3.80;;;3.30;;
16642;SDS011;8435;52.184;5.406;2024-02-16T08:19:40;3.90;;;3.60;;
16642;SDS011;8435;52.184;5.406;2024-02-16T08:22:08;3.97;;;3.47;;
16642;SDS011;8435;52.184;5.406;2024-02-16T08:24:35;3.60;;;3.30;;
16642;SDS011;8435;52.184;5.406;2024-02-16T08:27:04;4.83;;;3.43;;
16642;SDS011;8435;52.184;5.406;2024-02-16T08:29:31;3.63;;;3.27;;
16642;SDS011;8435;52.184;5.406;2024-02-16T08:31:58;3.97;;;3.57;;
16642;SDS011;8435;52.184;5.406;2024-02-16T08:34:25;3.57;;;3.27;;
16642;SDS011;8435;52.184;5.406;2024-02-16T08:36:52;5.03;;;4.33;;
16642;SDS011;8435;52.184;5.406;2024-02-16T08:39:21;4.60;;;3.50;;
16642;SDS011;8435;52.184;5.406;2024-02-16T08:41:50;3.70;;;3.33;;
16642;SDS011;8435;52.184;5.406;2024-02-16T08:44:17;4.73;;;3.63;;
16642;SDS011;8435;52.184;5.406;2024-02-16T08:46:44;5.23;;;4.27;;
16642;SDS011;8435;52.184;5.406;2024-02-16T08:49:11;7.47;;;3.87;;
16642;SDS011;8435;52.184;5.406;2024-02-16T08:51:38;4.10;;;3.80;;
16642;SDS011;8435;52.184;5.406;2024-02-16T08:54:05;4.37;;;3.63;;
16642;SDS011;8435;52.184;5.406;2024-02-16T08:56:34;4.53;;;4.10;;
16642;SDS011;8435;52.184;5.406;2024-02-16T08:59:04;4.90;;;4.00;;
16642;SDS011;8435;52.184;5.406;2024-02-16T09:01:31;4.63;;;3.57;;
16642;SDS011;8435;52.184;5.406;2024-02-16T09:03:58;4.77;;;3.73;;
16642;SDS011;8435;52.184;5.406;2024-02-16T09:06:28;5.10;;;4.07;;
16642;SDS011;8435;52.184;5.406;2024-02-16T09:08:55;5.87;;;4.20;;
16642;SDS011;8435;52.184;5.406;2024-02-16T09:11:22;4.40;;;3.97;;
16642;SDS011;8435;52.184;5.406;2024-02-16T09:13:51;6.83;;;4.33;;
16642;SDS011;8435;52.184;5.406;2024-02-16T09:16:18;4.87;;;4.07;;
16642;SDS011;8435;52.184;5.406;2024-02-16T09:18:45;5.10;;;4.30;;
16642;SDS011;8435;52.184;5.406;2024-02-16T09:21:14;4.93;;;4.13;;
16642;SDS011;8435;52.184;5.406;2024-02-16T09:23:41;4.50;;;4.10;;
16642;SDS011;8435;52.184;5.406;2024-02-16T09:26:08;5.03;;;4.53;;
16642;SDS011;8435;52.184;5.406;2024-02-16T09:28:38;5.93;;;4.10;;
16642;SDS011;8435;52.184;5.406;2024-02-16T09:31:08;4.60;;;4.10;;
16642;SDS011;8435;52.184;5.406;2024-02-16T09:33:35;7.17;;;4.27;;
16642;SDS011;8435;52.184;5.406;2024-02-16T09:36:01;6.80;;;4.67;;
16642;SDS011;8435;52.184;5.406;2024-02-16T09:38:29;4.63;;;4.23;;
16642;SDS011;8435;52.184;5.406;2024-02-16T09:40:57;5.10;;;4.37;;
16642;SDS011;8435;52.184;5.406;2024-02-16T09:43:24;5.13;;;4.23;;
16642;SDS011;8435;52.184;5.406;2024-02-16T09:45:53;5.77;;;4.33;;
16642;SDS011;8435;52.184;5.406;2024-02-16T09:48:21;5.90;;;4.47;;
16642;SDS011;8435;52.184;5.406;2024-02-16T09:50:49;8.67;;;5.17;;
16642;SDS011;8435;52.184;5.406;2024-02-16T09:53:17;5.83;;;4.43;;
16642;SDS011;8435;52.184;5.406;2024-02-16T09:55:50;6.07;;;4.33;;
16642;SDS011;8435;52.184;5.406;2024-02-16T09:58:19;5.10;;;4.60;;
16642;SDS011;8435;52.184;5.406;2024-02-16T10:00:49;5.90;;;4.17;;
16642;SDS011;8435;52.184;5.406;2024-02-16T10:03:25;6.83;;;4.87;;
16642;SDS011;8435;52.184;5.406;2024-02-16T10:06:03;6.33;;;4.20;;
16642;SDS011;8435;52.184;5.406;2024-02-16T10:08:33;5.37;;;4.60;;
16642;SDS011;8435;52.184;5.406;2024-02-16T10:11:03;5.70;;;4.63;;
16642;SDS011;8435;52.184;5.406;2024-02-16T10:13:30;4.80;;;4.40;;
16642;SDS011;8435;52.184;5.406;2024-02-16T10:16:06;4.90;;;4.50;;
16642;SDS011;8435;52.184;5.406;2024-02-16T10:18:36;5.90;;;5.07;;
16642;SDS011;8435;52.184;5.406;2024-02-16T10:21:03;5.57;;;5.07;;
16642;SDS011;8435;52.184;5.406;2024-02-16T10:23:30;6.37;;;5.13;;
16642;SDS011;8435;52.184;5.406;2024-02-16T10:25:57;5.90;;;4.93;;
16642;SDS011;8435;52.184;5.406;2024-02-16T10:28:25;8.37;;;5.80;;
16642;SDS011;8435;52.184;5.406;2024-02-16T10:30:57;5.63;;;5.13;;
16642;SDS011;8435;52.184;5.406;2024-02-16T10:33:26;5.80;;;5.03;;
16642;SDS011;8435;52.184;5.406;2024-02-16T10:35:56;10.47;;;5.80;;
16642;SDS011;8435;52.184;5.406;2024-02-16T10:38:24;7.07;;;5.50;;
16642;SDS011;8435;52.184;5.406;2024-02-16T10:40:52;6.37;;;5.47;;
16642;SDS011;8435;52.184;5.406;2024-02-16T10:43:22;6.77;;;5.60;;
16642;SDS011;8435;52.184;5.406;2024-02-16T10:45:50;6.03;;;5.43;;
16642;SDS011;8435;52.184;5.406;2024-02-16T10:48:18;7.73;;;6.13;;
16642;SDS011;8435;52.184;5.406;2024-02-16T10:50:45;6.20;;;5.60;;
16642;SDS011;8435;52.184;5.406;2024-02-16T10:53:16;8.13;;;7.30;;
16642;SDS011;8435;52.184;5.406;2024-02-16T10:55:48;7.33;;;6.63;;
16642;SDS011;8435;52.184;5.406;2024-02-16T10:58:16;6.67;;;5.97;;
16642;SDS011;8435;52.184;5.406;2024-02-16T11:00:50;6.67;;;5.60;;
16642;SDS011;8435;52.184;5.406;2024-02-16T11:03:17;8.53;;;7.20;;
16642;SDS011;8435;52.184;5.406;2024-02-16T11:05:49;7.97;;;6.63;;
16642;SDS011;8435;52.184;5.406;2024-02-16T11:08:18;7.37;;;6.67;;
16642;SDS011;8435;52.184;5.406;2024-02-16T11:10:58;7.70;;;6.67;;
16642;SDS011;8435;52.184;5.406;2024-02-16T11:13:28;7.63;;;6.83;;
16642;SDS011;8435;52.184;5.406;2024-02-16T11:15:59;8.80;;;7.00;;
16642;SDS011;8435;52.184;5.406;2024-02-16T11:18:27;8.53;;;7.73;;
16642;SDS011;8435;52.184;5.406;2024-02-16T11:20:55;7.53;;;6.70;;
16642;SDS011;8435;52.184;5.406;2024-02-16T11:23:28;8.23;;;7.43;;
16642;SDS011;8435;52.184;5.406;2024-02-16T11:25:59;8.97;;;7.37;;
16642;SDS011;8435;52.184;5.406;2024-02-16T11:28:27;11.40;;;8.33;;
16642;SDS011;8435;52.184;5.406;2024-02-16T11:30:54;9.87;;;7.73;;
16642;SDS011;8435;52.184;5.406;2024-02-16T11:33:21;9.50;;;8.07;;
16642;SDS011;8435;52.184;5.406;2024-02-16T11:35:54;8.80;;;7.90;;
16642;SDS011;8435;52.184;5.406;2024-02-16T11:38:22;8.83;;;7.73;;
16642;SDS011;8435;52.184;5.406;2024-02-16T11:40:54;9.80;;;8.00;;
16642;SDS011;8435;52.184;5.406;2024-02-16T11:43:21;8.77;;;7.30;;
16642;SDS011;8435;52.184;5.406;2024-02-16T11:45:48;8.10;;;7.30;;
16642;SDS011;8435;52.184;5.406;2024-02-16T11:48:18;8.77;;;7.33;;
16642;SDS011;8435;52.184;5.406;2024-02-16T11:50:47;9.10;;;7.60;;
16642;SDS011;8435;52.184;5.406;2024-02-16T11:53:15;8.50;;;7.37;;
16642;SDS011;8435;52.184;5.406;2024-02-16T11:55:46;8.10;;;7.37;;
16642;SDS011;8435;52.184;5.406;2024-02-16T11:58:15;8.20;;;7.27;;
16642;SDS011;8435;52.184;5.406;2024-02-16T12:00:42;8.40;;;7.33;;
16642;SDS011;8435;52.184;5.406;2024-02-16T12:03:09;8.10;;;6.57;;
16642;SDS011;8435;52.184;5.406;2024-02-16T12:05:37;8.27;;;7.30;;
16642;SDS011;8435;52.184;5.406;2024-02-16T12:08:05;9.73;;;7.97;;
16642;SDS011;8435;52.184;5.406;2024-02-16T12:10:32;9.50;;;7.73;;
16642;SDS011;8435;52.184;5.406;2024-02-16T12:12:59;10.43;;;7.40;;
16642;SDS011;8435;52.184;5.406;2024-02-16T12:15:27;7.77;;;7.00;;
16642;SDS011;8435;52.184;5.406;2024-02-16T12:17:58;9.57;;;6.33;;
16642;SDS011;8435;52.184;5.406;2024-02-16T12:20:25;7.57;;;6.67;;
16642;SDS011;8435;52.184;5.406;2024-02-16T12:22:56;8.93;;;6.33;;
16642;SDS011;8435;52.184;5.406;2024-02-16T12:25:24;6.17;;;5.27;;
16642;SDS011;8435;52.184;5.406;2024-02-16T12:27:51;5.10;;;4.53;;
16642;SDS011;8435;52.184;5.406;2024-02-16T12:30:17;6.57;;;4.03;;
16642;SDS011;8435;52.184;5.406;2024-02-16T12:32:45;4.67;;;4.00;;
16642;SDS011;8435;52.184;5.406;2024-02-16T12:35:12;3.87;;;3.57;;
16642;SDS011;8435;52.184;5.406;2024-02-16T12:37:40;4.03;;;3.63;;
16642;SDS011;8435;52.184;5.406;2024-02-16T12:40:07;4.53;;;3.93;;
16642;SDS011;8435;52.184;5.406;2024-02-16T12:42:34;3.80;;;3.50;;
16642;SDS011;8435;52.184;5.406;2024-02-16T12:45:01;4.67;;;4.17;;
16642;SDS011;8435;52.184;5.406;2024-02-16T12:47:28;3.67;;;3.30;;
16642;SDS011;8435;52.184;5.406;2024-02-16T12:49:56;3.87;;;3.47;;
16642;SDS011;8435;52.184;5.406;2024-02-16T12:52:23;3.27;;;2.97;;
16642;SDS011;8435;52.184;5.406;2024-02-16T12:54:51;3.20;;;2.90;;
16642;SDS011;8435;52.184;5.406;2024-02-16T12:57:18;2.93;;;2.73;;
16642;SDS011;8435;52.184;5.406;2024-02-16T12:59:45;3.53;;;3.23;;
16642;SDS011;8435;52.184;5.406;2024-02-16T13:02:12;3.30;;;3.10;;
16642;SDS011;8435;52.184;5.406;2024-02-16T13:04:39;3.20;;;3.00;;
16642;SDS011;8435;52.184;5.406;2024-02-16T13:07:10;3.43;;;3.13;;
16642;SDS011;8435;52.184;5.406;2024-02-16T13:09:37;3.40;;;2.97;;
16642;SDS011;8435;52.184;5.406;2024-02-16T13:12:04;3.30;;;3.10;;
16642;SDS011;8435;52.184;5.406;2024-02-16T13:14:31;3.20;;;2.90;;
16642;SDS011;8435;52.184;5.406;2024-02-16T13:16:58;3.60;;;3.30;;
16642;SDS011;8435;52.184;5.406;2024-02-16T13:19:24;3.60;;;3.30;;
16642;SDS011;8435;52.184;5.406;2024-02-16T13:21:51;3.27;;;2.80;;
16642;SDS011;8435;52.184;5.406;2024-02-16T13:24:19;3.27;;;2.87;;
16642;SDS011;8435;52.184;5.406;2024-02-16T13:26:46;3.40;;;3.10;;
16642;SDS011;8435;52.184;5.406;2024-02-16T13:29:13;3.20;;;2.93;;
16642;SDS011;8435;52.184;5.406;2024-02-16T13:31:40;3.57;;;3.27;;
16642;SDS011;8435;52.184;5.406;2024-02-16T13:34:10;3.23;;;2.90;;
16642;SDS011;8435;52.184;5.406;2024-02-16T13:36:40;3.47;;;2.53;;
16642;SDS011;8435;52.184;5.406;2024-02-16T13:39:07;3.87;;;3.00;;
16642;SDS011;8435;52.184;5.406;2024-02-16T13:41:36;3.40;;;2.60;;
16642;SDS011;8435;52.184;5.406;2024-02-16T13:44:02;2.63;;;2.40;;
16642;SDS011;8435;52.184;5.406;2024-02-16T13:46:29;2.50;;;2.30;;
16642;SDS011;8435;52.184;5.406;2024-02-16T13:48:56;3.47;;;2.60;;
16642;SDS011;8435;52.184;5.406;2024-02-16T13:51:24;2.30;;;2.10;;
16642;SDS011;8435;52.184;5.406;2024-02-16T13:53:50;2.90;;;2.60;;
16642;SDS011;8435;52.184;5.406;2024-02-16T13:56:17;2.93;;;2.60;;
16642;SDS011;8435;52.184;5.406;2024-02-16T13:58:46;3.10;;;2.60;;
16642;SDS011;8435;52.184;5.406;2024-02-16T14:01:13;2.40;;;2.20;;
16642;SDS011;8435;52.184;5.406;2024-02-16T14:03:40;2.53;;;2.33;;
16642;SDS011;8435;52.184;5.406;2024-02-16T14:06:07;5.40;;;2.73;;
16642;SDS011;8435;52.184;5.406;2024-02-16T14:08:36;3.10;;;2.80;;
16642;SDS011;8435;52.184;5.406;2024-02-16T14:11:03;2.90;;;2.60;;
16642;SDS011;8435;52.184;5.406;2024-02-16T14:13:30;3.83;;;2.57;;
16642;SDS011;8435;52.184;5.406;2024-02-16T14:15:58;3.63;;;2.77;;
16642;SDS011;8435;52.184;5.406;2024-02-16T14:18:27;3.10;;;2.73;;
16642;SDS011;8435;52.184;5.406;2024-02-16T14:20:54;3.40;;;3.10;;
16642;SDS011;8435;52.184;5.406;2024-02-16T14:23:24;3.50;;;3.20;;
16642;SDS011;8435;52.184;5.406;2024-02-16T14:25:51;3.20;;;2.93;;
16642;SDS011;8435;52.184;5.406;2024-02-16T14:28:18;3.50;;;3.20;;
16642;SDS011;8435;52.184;5.406;2024-02-16T14:30:44;3.80;;;3.50;;
16642;SDS011;8435;52.184;5.406;2024-02-16T14:33:12;4.27;;;3.53;;
16642;SDS011;8435;52.184;5.406;2024-02-16T14:35:42;4.57;;;3.40;;
16642;SDS011;8435;52.184;5.406;2024-02-16T14:38:08;3.87;;;3.57;;
16642;SDS011;8435;52.184;5.406;2024-02-16T14:40:35;3.67;;;3.37;;
16642;SDS011;8435;52.184;5.406;2024-02-16T14:43:02;3.77;;;3.47;;
16642;SDS011;8435;52.184;5.406;2024-02-16T14:45:29;3.07;;;2.87;;
16642;SDS011;8435;52.184;5.406;2024-02-16T14:47:59;3.97;;;3.57;;
16642;SDS011;8435;52.184;5.406;2024-02-16T14:50:27;3.73;;;3.40;;
16642;SDS011;8435;52.184;5.406;2024-02-16T14:52:54;3.87;;;3.47;;
16642;SDS011;8435;52.184;5.406;2024-02-16T14:55:20;3.47;;;3.20;;
16642;SDS011;8435;52.184;5.406;2024-02-16T14:57:47;3.30;;;3.00;;
16642;SDS011;8435;52.184;5.406;2024-02-16T15:00:14;3.60;;;3.30;;
16642;SDS011;8435;52.184;5.406;2024-02-16T15:02:41;3.90;;;3.33;;
16642;SDS011;8435;52.184;5.406;2024-02-16T15:05:08;4.23;;;3.30;;